createdAt,value
2018-12-01T00:00:39.238Z,32.03
2018-12-01T00:03:08.758Z,32.03
2018-12-01T00:05:38.279Z,30.23
2018-12-01T00:08:07.838Z,37.60
2018-12-01T00:10:37.398Z,37.10
2018-12-01T00:13:06.944Z,32.97
2018-12-01T00:15:36.526Z,35.73
2018-12-01T00:18:06.606Z,34.37
2018-12-01T00:20:37.689Z,29.67
2018-12-01T00:23:07.661Z,31.80
2018-12-01T00:25:37.227Z,34.13
2018-12-01T00:28:06.834Z,29.70
2018-12-01T00:30:36.410Z,31.53
2018-12-01T00:33:06.126Z,35.87
2018-12-01T00:35:35.658Z,31.07
2018-12-01T00:38:05.241Z,34.07
2018-12-01T00:40:34.818Z,36.93
2018-12-01T00:43:04.327Z,34.63
2018-12-01T00:45:33.852Z,34.50
2018-12-01T00:48:03.462Z,35.90
2018-12-01T00:50:32.974Z,33.60
2018-12-01T00:53:02.519Z,33.07
2018-12-01T00:55:32.078Z,29.27
2018-12-01T00:58:01.594Z,36.20
2018-12-01T01:00:31.091Z,33.60
2018-12-01T01:03:01.122Z,32.63
2018-12-01T01:05:31.501Z,33.90
2018-12-01T01:08:01.640Z,34.63
2018-12-01T01:10:33.395Z,33.53
2018-12-01T01:13:02.967Z,34.83
2018-12-01T01:15:32.493Z,35.80
2018-12-01T01:18:02.062Z,34.63
2018-12-01T01:20:31.611Z,31.63
2018-12-01T01:23:01.118Z,33.63
2018-12-01T01:25:30.698Z,34.73
2018-12-01T01:28:00.214Z,38.07
2018-12-01T01:30:29.733Z,35.77
2018-12-01T01:33:10.446Z,35.43
2018-12-01T01:35:39.982Z,34.40
2018-12-01T01:38:09.507Z,35.43
2018-12-01T01:40:39.098Z,36.03
2018-12-01T01:43:08.619Z,35.73
2018-12-01T01:45:38.433Z,38.13
2018-12-01T01:48:08.062Z,34.00
2018-12-01T01:50:37.586Z,35.80
2018-12-01T01:53:07.114Z,35.73
2018-12-01T01:55:36.694Z,34.47
2018-12-01T01:58:06.348Z,33.20
2018-12-01T02:00:35.894Z,33.80
2018-12-01T02:03:05.491Z,33.77
2018-12-01T02:05:35.055Z,36.07
2018-12-01T02:08:04.623Z,38.27
2018-12-01T02:10:34.191Z,35.27
2018-12-01T02:13:03.733Z,32.83
2018-12-01T02:15:33.259Z,35.60
2018-12-01T02:18:02.836Z,31.03
2018-12-01T02:20:32.406Z,37.00
2018-12-01T02:23:01.935Z,37.57
2018-12-01T02:25:31.513Z,36.70
2018-12-01T02:28:01.051Z,35.90
2018-12-01T02:30:30.584Z,35.27
2018-12-01T02:33:00.158Z,38.37
2018-12-01T02:35:30.234Z,36.37
2018-12-01T02:37:59.743Z,34.63
2018-12-01T02:40:29.343Z,36.83
2018-12-01T02:42:58.883Z,34.83
2018-12-01T02:45:39.534Z,33.17
2018-12-01T02:48:09.071Z,40.53
2018-12-01T02:50:38.604Z,40.30
2018-12-01T02:53:08.171Z,36.30
2018-12-01T02:55:37.678Z,37.90
2018-12-01T02:58:07.198Z,43.03
2018-12-01T03:00:36.881Z,36.13
2018-12-01T03:03:06.502Z,31.33
2018-12-01T03:05:36.066Z,34.17
2018-12-01T03:08:06.105Z,34.57
2018-12-01T03:10:35.686Z,34.17
2018-12-01T03:13:05.358Z,39.40
2018-12-01T03:15:34.870Z,37.87
2018-12-01T03:18:04.433Z,32.60
2018-12-01T03:20:34.008Z,30.57
2018-12-01T03:23:03.542Z,31.63
2018-12-01T03:25:33.045Z,33.57
2018-12-01T03:28:02.606Z,33.80
2018-12-01T03:30:32.126Z,34.93
2018-12-01T03:33:01.635Z,34.30
2018-12-01T03:35:31.195Z,29.87
2018-12-01T03:38:00.730Z,32.60
2018-12-01T03:40:34.402Z,33.33
2018-12-01T03:43:03.898Z,31.67
2018-12-01T03:45:33.499Z,41.80
2018-12-01T03:48:03.063Z,32.63
2018-12-01T03:50:32.662Z,26.83
2018-12-01T03:53:02.230Z,31.70
2018-12-01T03:55:33.002Z,31.67
2018-12-01T03:58:03.053Z,35.13
2018-12-01T04:00:34.304Z,38.20
2018-12-01T04:03:04.815Z,32.87
2018-12-01T04:05:34.444Z,29.87
2018-12-01T04:08:04.006Z,32.53
2018-12-01T04:10:33.532Z,29.67
2018-12-01T04:13:03.127Z,30.20
2018-12-01T04:15:32.653Z,35.20
2018-12-01T04:18:02.260Z,30.10
2018-12-01T04:20:31.874Z,30.10
2018-12-01T04:23:01.386Z,32.87
2018-12-01T04:25:30.905Z,35.13
2018-12-01T04:28:00.470Z,34.77
2018-12-01T04:30:30.077Z,34.00
2018-12-01T04:32:59.654Z,31.87
2018-12-01T04:35:29.238Z,37.53
2018-12-01T04:37:58.745Z,35.73
2018-12-01T04:40:28.290Z,32.23
2018-12-01T04:42:57.852Z,33.13
2018-12-01T04:45:27.402Z,33.17
2018-12-01T04:47:56.999Z,32.40
2018-12-01T04:50:26.618Z,28.70
2018-12-01T04:52:56.129Z,29.57
2018-12-01T04:55:25.653Z,36.40
2018-12-01T04:57:55.202Z,32.03
2018-12-01T05:00:24.730Z,29.97
2018-12-01T05:02:54.234Z,27.40
2018-12-01T05:05:23.820Z,31.77
2018-12-01T05:07:53.342Z,28.80
2018-12-01T05:10:23.410Z,31.40
2018-12-01T05:12:52.934Z,34.70
2018-12-01T05:15:22.508Z,30.20
2018-12-01T05:17:52.047Z,33.00
2018-12-01T05:20:23.582Z,29.10
2018-12-01T05:22:53.833Z,32.17
2018-12-01T05:25:23.345Z,29.17
2018-12-01T05:27:53.081Z,29.50
2018-12-01T05:30:22.614Z,30.83
2018-12-01T05:32:52.141Z,27.10
2018-12-01T05:35:22.501Z,27.77
2018-12-01T05:37:52.129Z,32.20
2018-12-01T05:40:22.033Z,28.40
2018-12-01T05:42:51.575Z,31.77
2018-12-01T05:45:21.986Z,29.90
2018-12-01T05:47:52.105Z,30.50
2018-12-01T05:50:23.277Z,31.43
2018-12-01T05:52:54.502Z,24.33
2018-12-01T05:55:24.087Z,30.03
2018-12-01T05:57:53.668Z,33.33
2018-12-01T06:00:23.198Z,34.70
2018-12-01T06:02:52.722Z,28.80
2018-12-01T06:05:22.231Z,30.00
2018-12-01T06:07:51.764Z,31.20
2018-12-01T06:10:22.246Z,28.63
2018-12-01T06:12:52.833Z,31.20
2018-12-01T06:15:22.619Z,28.63
2018-12-01T06:17:52.186Z,31.60
2018-12-01T06:20:23.694Z,32.70
2018-12-01T06:22:53.236Z,27.63
2018-12-01T06:25:23.910Z,30.23
2018-12-01T06:27:53.677Z,24.87
2018-12-01T06:30:23.195Z,32.70
2018-12-01T06:32:53.105Z,27.03
2018-12-01T06:35:22.638Z,28.03
2018-12-01T06:37:52.180Z,30.33
2018-12-01T06:40:22.001Z,29.63
2018-12-01T06:42:51.542Z,30.33
2018-12-01T06:45:21.150Z,27.53
2018-12-01T06:47:50.709Z,28.83
2018-12-01T06:50:21.682Z,26.37
2018-12-01T06:52:52.131Z,31.60
2018-12-01T06:55:22.574Z,30.20
2018-12-01T06:57:52.118Z,27.17
2018-12-01T07:00:23.941Z,27.77
2018-12-01T07:02:54.550Z,27.93
2018-12-01T07:05:24.085Z,28.93
2018-12-01T07:07:53.689Z,27.63
2018-12-01T07:10:23.791Z,25.53
2018-12-01T07:12:55.758Z,27.43
2018-12-01T07:15:28.732Z,29.93
2018-12-01T07:17:58.267Z,26.93
2018-12-01T07:20:27.794Z,30.43
2018-12-01T07:22:57.322Z,26.27
2018-12-01T07:25:26.819Z,26.70
2018-12-01T07:27:56.366Z,29.00
2018-12-01T07:30:25.861Z,30.97
2018-12-01T07:32:55.391Z,27.87
2018-12-01T07:35:24.910Z,34.47
2018-12-01T07:37:54.452Z,31.00
2018-12-01T07:40:23.968Z,30.13
2018-12-01T07:42:53.519Z,30.93
2018-12-01T07:45:23.046Z,26.70
2018-12-01T07:47:52.622Z,30.23
2018-12-01T07:50:22.146Z,30.60
2018-12-01T07:52:53.530Z,24.43
2018-12-01T07:55:23.051Z,27.90
2018-12-01T07:57:52.618Z,26.73
2018-12-01T08:00:22.145Z,26.80
2018-12-01T08:02:51.874Z,26.87
2018-12-01T08:05:21.385Z,30.20
2018-12-01T08:07:50.911Z,25.97
2018-12-01T08:10:20.430Z,27.27
2018-12-01T08:12:49.962Z,26.73
2018-12-01T08:15:19.484Z,26.43
2018-12-01T08:17:49.007Z,29.43
2018-12-01T08:20:18.530Z,27.97
2018-12-01T08:22:48.061Z,24.87
2018-12-01T08:25:19.874Z,25.63
2018-12-01T08:27:51.732Z,29.73
2018-12-01T08:30:23.602Z,26.00
2018-12-01T08:32:53.174Z,26.53
2018-12-01T08:35:22.869Z,25.33
2018-12-01T08:37:52.988Z,25.30
2018-12-01T08:40:23.910Z,25.33
2018-12-01T08:42:53.442Z,28.63
2018-12-01T08:45:22.974Z,28.40
2018-12-01T08:47:52.541Z,29.63
2018-12-01T08:50:23.165Z,25.97
2018-12-01T08:52:53.319Z,26.20
2018-12-01T08:55:23.718Z,28.33
2018-12-01T08:57:53.965Z,22.97
2018-12-01T09:00:30.406Z,21.97
2018-12-01T09:03:02.450Z,23.70
2018-12-01T09:05:31.984Z,24.67
2018-12-01T09:08:01.506Z,24.17
2018-12-01T09:10:31.022Z,22.77
2018-12-01T09:13:01.734Z,25.43
2018-12-01T09:15:30.126Z,22.80
2018-12-01T09:17:59.667Z,21.97
2018-12-01T09:20:29.187Z,22.70
2018-12-01T09:22:58.729Z,19.27
2018-12-01T09:25:28.239Z,25.47
2018-12-01T09:27:57.815Z,22.53
2018-12-01T09:30:28.642Z,21.30
2018-12-01T09:32:58.202Z,22.77
2018-12-01T09:35:27.769Z,25.17
2018-12-01T09:37:57.302Z,25.73
2018-12-01T09:40:26.826Z,19.47
2018-12-01T09:42:56.361Z,26.47
2018-12-01T09:45:26.546Z,25.00
2018-12-01T09:47:56.835Z,21.60
2018-12-01T09:50:26.437Z,23.63
2018-12-01T09:52:57.662Z,22.40
2018-12-01T09:55:30.002Z,21.73
2018-12-01T09:58:00.110Z,20.33
2018-12-01T10:00:30.810Z,19.60
2018-12-01T10:03:01.470Z,23.93
2018-12-01T10:05:31.452Z,18.97
2018-12-01T10:08:00.992Z,17.80
2018-12-01T10:10:30.549Z,16.47
2018-12-01T10:13:00.109Z,15.40
2018-12-01T10:15:31.047Z,18.20
2018-12-01T10:18:00.597Z,20.30
2018-12-01T10:20:31.330Z,14.43
2018-12-01T10:23:01.829Z,20.03
2018-12-01T10:25:31.401Z,17.30
2018-12-01T10:28:00.918Z,18.57
2018-12-01T10:30:30.463Z,14.90
2018-12-01T10:33:00.046Z,18.43
2018-12-01T10:35:29.579Z,14.67
2018-12-01T10:38:01.559Z,15.60
2018-12-01T10:40:31.055Z,17.53
2018-12-01T10:43:00.598Z,17.70
2018-12-01T10:45:30.178Z,16.23
2018-12-01T10:47:59.749Z,14.97
2018-12-01T10:50:29.266Z,14.57
2018-12-01T10:52:58.838Z,16.57
2018-12-01T10:55:29.402Z,17.20
2018-12-01T10:58:04.159Z,10.57
2018-12-01T11:00:38.881Z,14.30
2018-12-01T11:03:13.875Z,14.33
2018-12-01T11:05:43.557Z,16.27
2018-12-01T11:08:14.503Z,17.53
2018-12-01T11:10:44.253Z,13.87
2018-12-01T11:13:13.778Z,11.40
2018-12-01T11:15:43.366Z,10.97
2018-12-01T11:18:12.901Z,11.97
2018-12-01T11:20:42.483Z,10.83
2018-12-01T11:23:12.070Z,15.40
2018-12-01T11:25:41.586Z,10.50
2018-12-01T11:28:11.126Z,11.43
2018-12-01T11:30:42.471Z,13.00
2018-12-01T11:33:12.070Z,11.33
2018-12-01T11:35:41.621Z,13.33
2018-12-01T11:38:11.245Z,15.63
2018-12-01T11:40:40.761Z,12.30
2018-12-01T11:43:10.567Z,11.63
2018-12-01T11:45:40.182Z,12.87
2018-12-01T11:48:10.205Z,12.30
2018-12-01T11:50:40.586Z,12.03
2018-12-01T11:53:10.136Z,11.67
2018-12-01T11:55:39.649Z,12.50
2018-12-01T11:58:09.218Z,10.67
2018-12-01T12:00:38.738Z,12.37
2018-12-01T12:03:08.314Z,11.63
2018-12-01T12:05:37.936Z,8.40
2018-12-01T12:08:25.841Z,9.93
2018-12-01T12:10:55.812Z,15.40
2018-12-01T12:13:26.679Z,12.27
2018-12-01T12:15:56.502Z,10.63
2018-12-01T12:18:26.088Z,10.57
2018-12-01T12:20:55.673Z,9.63
2018-12-01T12:23:25.299Z,10.73
2018-12-01T12:25:54.870Z,6.53
2018-12-01T12:28:24.513Z,8.40
2018-12-01T12:30:54.098Z,10.43
2018-12-01T12:33:23.686Z,9.30
2018-12-01T12:35:53.219Z,15.07
2018-12-01T12:38:22.785Z,11.53
2018-12-01T12:40:52.302Z,10.23
2018-12-01T12:43:21.806Z,11.67
2018-12-01T12:45:51.370Z,13.40
2018-12-01T12:48:20.911Z,8.80
2018-12-01T12:50:53.148Z,7.63
2018-12-01T12:53:20.018Z,12.80
2018-12-01T12:55:49.505Z,14.30
2018-12-01T12:58:19.056Z,13.27
2018-12-01T13:00:48.619Z,12.87
2018-12-01T13:03:18.130Z,13.30
2018-12-01T13:05:48.584Z,10.50
2018-12-01T13:08:18.752Z,9.63
2018-12-01T13:10:48.302Z,11.53
2018-12-01T13:13:17.831Z,7.13
2018-12-01T13:15:47.486Z,10.23
2018-12-01T13:18:16.991Z,9.37
2018-12-01T13:20:47.414Z,9.63
2018-12-01T13:23:16.924Z,9.63
2018-12-01T13:25:46.453Z,10.07
2018-12-01T13:28:21.605Z,8.37
2018-12-01T13:30:53.708Z,8.57
2018-12-01T13:33:23.438Z,8.10
2018-12-01T13:35:53.075Z,7.53
2018-12-01T13:38:22.734Z,9.73
2018-12-01T13:40:52.274Z,9.63
2018-12-01T13:43:21.818Z,9.90
2018-12-01T13:45:51.357Z,9.17
2018-12-01T13:48:20.946Z,9.80
2018-12-01T13:50:50.531Z,9.80
2018-12-01T13:53:20.079Z,14.43
2018-12-01T13:55:50.706Z,10.03
2018-12-01T13:58:20.251Z,13.77
2018-12-01T14:00:49.828Z,9.40
2018-12-01T14:03:19.398Z,14.30
2018-12-01T14:05:49.630Z,11.20
2018-12-01T14:08:19.170Z,12.20
2018-12-01T14:10:52.228Z,8.67
2018-12-01T14:13:21.740Z,11.93
2018-12-01T14:15:51.817Z,12.07
2018-12-01T14:18:21.430Z,9.07
2018-12-01T14:20:50.991Z,8.27
2018-12-01T14:23:20.590Z,11.20
2018-12-01T14:25:50.170Z,11.07
2018-12-01T14:28:19.736Z,12.87
2018-12-01T14:30:49.246Z,9.40
2018-12-01T14:33:18.834Z,10.37
2018-12-01T14:35:48.363Z,9.87
2018-12-01T14:38:18.896Z,10.63
2018-12-01T14:40:49.505Z,13.67
2018-12-01T14:43:19.076Z,10.87
2018-12-01T14:45:50.467Z,12.17
2018-12-01T14:48:20.028Z,10.63
2018-12-01T14:50:49.554Z,11.93
2018-12-01T14:53:19.982Z,11.57
2018-12-01T14:55:49.533Z,9.00
2018-12-01T14:58:19.100Z,10.53
2018-12-01T15:00:48.734Z,15.30
2018-12-01T15:03:18.238Z,13.27
2018-12-01T15:05:47.818Z,9.80
2018-12-01T15:08:17.322Z,9.70
2018-12-01T15:10:46.814Z,11.20
2018-12-01T15:13:16.430Z,10.80
2018-12-01T15:15:45.984Z,12.27
2018-12-01T15:18:15.497Z,10.17
2018-12-01T15:20:45.153Z,10.10
2018-12-01T15:23:14.727Z,8.93
2018-12-01T15:25:44.258Z,10.03
2018-12-01T15:28:13.862Z,9.07
2018-12-01T15:30:43.409Z,7.90
2018-12-01T15:33:15.322Z,8.67
2018-12-01T15:35:45.835Z,13.57
2018-12-01T15:38:15.662Z,12.13
2018-12-01T15:40:48.335Z,11.30
2018-12-01T15:43:17.894Z,11.23
2018-12-01T15:45:47.422Z,11.33
2018-12-01T15:48:16.975Z,9.77
2018-12-01T15:50:46.571Z,10.23
2018-12-01T15:53:16.546Z,13.43
2018-12-01T15:55:46.163Z,7.77
2018-12-01T15:58:15.666Z,11.17
2018-12-01T16:00:45.276Z,12.07
2018-12-01T16:03:14.997Z,12.17
2018-12-01T16:05:44.505Z,16.73
2018-12-01T16:08:14.082Z,14.93
2018-12-01T16:10:43.597Z,12.63
2018-12-01T16:13:15.736Z,10.63
2018-12-01T16:15:50.361Z,10.27
2018-12-01T16:18:20.486Z,12.70
2018-12-01T16:20:50.693Z,13.80
2018-12-01T16:23:20.394Z,12.03
2018-12-01T16:25:49.978Z,11.47
2018-12-01T16:28:19.529Z,9.60
2018-12-01T16:30:49.128Z,15.23
2018-12-01T16:33:20.523Z,15.80
2018-12-01T16:35:51.111Z,14.90
2018-12-01T16:38:23.994Z,17.80
2018-12-01T16:41:02.642Z,22.23
2018-12-01T16:43:33.795Z,15.03
2018-12-01T16:46:04.123Z,11.63
2018-12-01T16:48:33.645Z,15.50
2018-12-01T16:51:03.198Z,13.97
2018-12-01T16:53:32.892Z,12.50
2018-12-01T16:56:02.458Z,16.03
2018-12-01T16:58:32.099Z,19.47
2018-12-01T17:01:01.617Z,14.20
2018-12-01T17:03:31.133Z,13.93
2018-12-01T17:06:03.220Z,12.20
2018-12-01T17:08:32.715Z,12.37
2018-12-01T17:11:02.256Z,15.27
2018-12-01T17:13:31.835Z,13.80
2018-12-01T17:16:01.393Z,10.53
2018-12-01T17:18:30.974Z,16.73
2018-12-01T17:21:00.588Z,8.33
2018-12-01T17:23:30.094Z,14.07
2018-12-01T17:25:59.685Z,14.13
2018-12-01T17:28:29.250Z,12.27
2018-12-01T17:30:58.774Z,12.80
2018-12-01T17:33:28.319Z,13.47
2018-12-01T17:35:57.872Z,14.30
2018-12-01T17:38:27.434Z,15.27
2018-12-01T17:41:14.999Z,9.90
2018-12-01T17:43:51.038Z,12.73
2018-12-01T17:46:20.624Z,13.60
2018-12-01T17:48:50.250Z,10.60
2018-12-01T17:51:19.800Z,9.93
2018-12-01T17:53:51.359Z,11.17
2018-12-01T17:56:20.890Z,13.53
2018-12-01T17:58:50.410Z,13.03
2018-12-01T18:01:20.051Z,11.80
2018-12-01T18:03:49.550Z,11.20
2018-12-01T18:06:19.074Z,9.93
2018-12-01T18:08:48.654Z,11.00
2018-12-01T18:11:18.227Z,9.50
2018-12-01T18:13:47.822Z,11.07
2018-12-01T18:16:17.363Z,20.83
2018-12-01T18:18:46.934Z,22.63
2018-12-01T18:21:16.470Z,16.03
2018-12-01T18:23:46.047Z,14.63
2018-12-01T18:26:15.575Z,13.70
2018-12-01T18:28:48.790Z,6.40
2018-12-01T18:31:20.394Z,8.47
2018-12-01T18:33:56.586Z,12.23
2018-12-01T18:36:26.090Z,8.83
2018-12-01T18:38:56.184Z,10.47
2018-12-01T18:41:25.755Z,15.00
2018-12-01T18:43:55.251Z,10.27
2018-12-01T18:46:24.774Z,14.33
2018-12-01T18:48:54.378Z,13.83
2018-12-01T18:51:23.891Z,18.60
2018-12-01T18:53:53.415Z,16.20
2018-12-01T18:56:22.978Z,10.20
2018-12-01T18:58:52.488Z,11.87
2018-12-01T19:01:21.999Z,8.77
2018-12-01T19:03:51.582Z,9.60
2018-12-01T19:06:21.082Z,14.13
2018-12-01T19:08:50.578Z,11.93
2018-12-01T19:11:20.119Z,14.50
2018-12-01T19:13:49.657Z,11.07
2018-12-01T19:16:19.154Z,14.43
2018-12-01T19:18:48.722Z,9.37
2018-12-01T19:21:18.218Z,13.30
2018-12-01T19:23:47.784Z,13.27
2018-12-01T19:26:17.330Z,14.53
2018-12-01T19:28:46.847Z,11.10
2018-12-01T19:31:16.350Z,10.70
2018-12-01T19:33:45.870Z,11.27
2018-12-01T19:36:15.410Z,9.93
2018-12-01T19:38:44.954Z,9.70
2018-12-01T19:41:14.478Z,10.90
2018-12-01T19:43:43.979Z,10.67
2018-12-01T19:46:13.533Z,9.67
2018-12-01T19:48:43.063Z,14.27
2018-12-01T19:51:12.594Z,10.10
2018-12-01T19:53:42.166Z,11.77
2018-12-01T19:56:11.699Z,9.80
2018-12-01T19:58:41.225Z,10.90
2018-12-01T20:01:10.806Z,13.17
2018-12-01T20:03:40.346Z,9.40
2018-12-01T20:06:09.943Z,10.07
2018-12-01T20:08:39.481Z,10.90
2018-12-01T20:11:09.074Z,9.80
2018-12-01T20:13:42.033Z,14.37
2018-12-01T20:16:21.546Z,12.37
2018-12-01T20:18:51.448Z,11.53
2018-12-01T20:21:21.263Z,11.10
2018-12-01T20:23:50.807Z,10.90
2018-12-01T20:26:20.366Z,11.53
2018-12-01T20:28:50.025Z,9.87
2018-12-01T20:31:19.652Z,10.43
2018-12-01T20:33:49.723Z,11.30
2018-12-01T20:36:24.004Z,11.60
2018-12-01T20:39:00.563Z,12.13
2018-12-01T20:41:30.139Z,9.53
2018-12-01T20:43:59.727Z,11.10
2018-12-01T20:46:29.354Z,10.43
2018-12-01T20:48:58.899Z,9.67
2018-12-01T20:51:28.494Z,10.67
2018-12-01T20:53:58.102Z,9.77
2018-12-01T20:56:30.086Z,11.63
2018-12-01T20:58:59.649Z,9.57
2018-12-01T21:01:29.255Z,11.57
2018-12-01T21:03:58.983Z,9.13
2018-12-01T21:06:28.517Z,8.67
2018-12-01T21:08:58.062Z,7.73
2018-12-01T21:11:27.631Z,10.03
2018-12-01T21:13:57.210Z,8.17
2018-12-01T21:16:26.734Z,8.93
2018-12-01T21:18:56.306Z,13.77
2018-12-01T21:21:25.918Z,15.40
2018-12-01T21:23:55.662Z,6.40
2018-12-01T21:26:25.303Z,8.23
2018-12-01T21:28:54.901Z,9.23
2018-12-01T21:31:24.472Z,7.50
2018-12-01T21:33:54.056Z,11.07
2018-12-01T21:36:23.717Z,11.37
2018-12-01T21:38:53.340Z,9.40
2018-12-01T21:41:22.903Z,9.07
2018-12-01T21:43:52.431Z,7.03
2018-12-01T21:46:22.046Z,8.70
2018-12-01T21:48:51.669Z,6.37
2018-12-01T21:51:21.345Z,10.03
2018-12-01T21:53:51.007Z,9.73
2018-12-01T21:56:20.611Z,10.33
2018-12-01T21:58:50.567Z,9.63
2018-12-01T22:01:20.167Z,10.97
2018-12-01T22:03:49.790Z,9.87
2018-12-01T22:06:19.360Z,7.00
2018-12-01T22:08:49.003Z,10.83
2018-12-01T22:11:18.598Z,8.97
2018-12-01T22:13:48.170Z,9.97
2018-12-01T22:16:17.747Z,10.57
2018-12-01T22:18:47.307Z,7.13
2018-12-01T22:21:16.876Z,10.67
2018-12-01T22:23:46.345Z,7.40
2018-12-01T22:26:15.885Z,6.80
2018-12-01T22:28:45.367Z,9.30
2018-12-01T22:31:14.857Z,8.10
2018-12-01T22:33:44.391Z,7.77
2018-12-01T22:36:13.910Z,7.33
2018-12-01T22:38:43.406Z,11.90
2018-12-01T22:41:12.989Z,7.93
2018-12-01T22:43:42.474Z,7.57
2018-12-01T22:46:12.086Z,10.60
2018-12-01T22:48:41.579Z,7.83
2018-12-01T22:51:11.104Z,6.30
2018-12-01T22:53:42.291Z,7.13
2018-12-01T22:56:11.861Z,5.70
2018-12-01T22:58:41.437Z,9.00
2018-12-01T23:01:10.985Z,5.93
2018-12-01T23:03:41.907Z,6.83
2018-12-01T23:06:11.415Z,5.60
2018-12-01T23:08:41.004Z,7.30
2018-12-01T23:11:10.616Z,7.50
2018-12-01T23:13:40.116Z,6.40
2018-12-01T23:16:09.610Z,5.90
2018-12-01T23:18:39.177Z,6.60
2018-12-01T23:21:08.666Z,6.70
2018-12-01T23:23:38.178Z,5.67
2018-12-01T23:26:07.746Z,4.73
2018-12-01T23:28:37.282Z,6.20
2018-12-01T23:31:06.825Z,6.50
2018-12-01T23:33:36.366Z,5.80
2018-12-01T23:36:05.910Z,4.73
2018-12-01T23:38:35.415Z,4.40
2018-12-01T23:41:04.975Z,5.30
2018-12-01T23:43:34.485Z,6.13
2018-12-01T23:46:03.994Z,6.87
2018-12-01T23:48:33.547Z,5.57
2018-12-01T23:51:03.066Z,6.33
2018-12-01T23:53:32.586Z,4.90
2018-12-01T23:56:02.154Z,5.00
2018-12-01T23:58:31.642Z,4.10
